Time,TemperatureF,DewpointF,PressureIn,WindDirection,WindDirectionDegrees,WindSpeedMPH,WindSpeedGustMPH,Humidity,HourlyPrecipIn,Conditions,Clouds,dailyrainin,SoftwareType,DateUTC
2013-07-04 09:35:00,61.5,54.6,30.10,South,180,0.0,3.0,78,0.00,,,0.00,Wunderground v.1.15,2013-07-04 16:35:00,
2013-07-04 09:45:00,61.3,55.1,30.10,SSW,194,0.0,3.0,80,0.00,,,0.00,Wunderground v.1.15,2013-07-04 16:45:00,
2013-07-04 09:55:00,61.7,55.1,30.10,SSW,198,0.0,3.0,79,0.00,,,0.00,Wunderground v.1.15,2013-07-04 16:55:00,
2013-07-04 10:05:00,62.1,55.2,30.11,SSE,164,0.0,0.0,78,0.00,,,0.00,Wunderground v.1.15,2013-07-04 17:05:00,
2013-07-04 10:15:00,62.2,54.9,30.11,South,180,0.0,0.0,77,0.00,,,0.00,Wunderground v.1.15,2013-07-04 17:15:00,
2013-07-04 10:20:00,62.2,54.9,30.11,South,175,0.0,1.0,77,0.00,,,0.00,Wunderground v.1.15,2013-07-04 17:20:00,
2013-07-04 10:25:00,62.2,54.9,30.11,South,185,1.0,2.0,77,0.00,,,0.00,Wunderground v.1.15,2013-07-04 17:25:00,
2013-07-04 10:35:00,62.5,54.8,30.11,SSW,196,0.0,3.0,76,0.00,,,0.00,Wunderground v.1.15,2013-07-04 17:35:00,
2013-07-04 10:45:00,62.5,54.5,30.10,West,277,0.0,3.0,75,0.00,,,0.00,Wunderground v.1.15,2013-07-04 17:45:00,
2013-07-04 10:55:00,63.0,54.6,30.10,SSE,156,0.0,3.0,74,0.00,,,0.00,Wunderground v.1.15,2013-07-04 17:55:00,
2013-07-04 11:00:00,63.6,54.8,30.10,South,170,0.0,0.0,73,0.00,,,0.00,Wunderground v.1.15,2013-07-04 18:00:00,
2013-07-04 11:05:00,64.4,54.8,30.10,SSE,164,0.0,0.0,71,0.00,,,0.00,Wunderground v.1.15,2013-07-04 18:05:00,
2013-07-04 11:15:00,65.9,55.0,30.10,South,185,0.0,0.0,68,0.00,,,0.00,Wunderground v.1.15,2013-07-04 18:15:00,
2013-07-04 11:25:00,67.1,54.9,30.10,South,175,0.0,1.0,65,0.00,,,0.00,Wunderground v.1.15,2013-07-04 18:25:00,
2013-07-04 11:35:00,67.8,54.3,30.10,NW,316,0.0,4.0,62,0.00,,,0.00,Wunderground v.1.15,2013-07-04 18:35:00,
2013-07-04 11:45:00,67.9,54.0,30.10,SSE,153,0.0,4.0,61,0.00,,,0.00,Wunderground v.1.15,2013-07-04 18:45:00,
2013-07-04 11:55:00,67.8,54.3,30.10,North,355,0.0,4.0,62,0.00,,,0.00,Wunderground v.1.15,2013-07-04 18:55:00,
2013-07-04 12:00:00,67.9,54.4,30.10,SSW,196,0.0,0.0,62,0.00,,,0.00,Wunderground v.1.15,2013-07-04 19:00:00,
2013-07-04 12:05:00,67.8,53.9,30.10,SSW,204,0.0,0.0,61,0.00,,,0.00,Wunderground v.1.15,2013-07-04 19:05:00,
2013-07-04 12:15:00,68.0,54.0,30.10,South,185,0.0,0.0,61,0.00,,,0.00,Wunderground v.1.15,2013-07-04 19:15:00,
2013-07-04 12:25:00,68.1,54.6,30.10,ENE,73,0.0,0.0,62,0.00,,,0.00,Wunderground v.1.15,2013-07-04 19:25:00,
2013-07-04 12:35:00,68.7,54.7,30.10,NNW,336,0.0,5.0,61,0.00,,,0.00,Wunderground v.1.15,2013-07-04 19:35:00,
2013-07-04 12:45:00,71.0,55.5,30.10,South,180,1.0,5.0,58,0.00,,,0.00,Wunderground v.1.15,2013-07-04 19:45:00,
2013-07-04 12:55:00,71.7,54.7,30.10,NW,320,1.0,5.0,55,0.00,,,0.00,Wunderground v.1.15,2013-07-04 19:55:00,
2013-07-04 13:05:00,71.4,54.9,30.10,SSW,194,0.0,1.0,56,0.00,,,0.00,Wunderground v.1.15,2013-07-04 20:05:00,
2013-07-04 13:10:00,71.3,54.8,30.10,SE,144,0.0,0.0,56,0.00,,,0.00,Wunderground v.1.15,2013-07-04 20:10:00,
2013-07-04 13:15:00,71.6,55.1,30.10,ESE,118,0.0,0.0,56,0.00,,,0.00,Wunderground v.1.15,2013-07-04 20:15:00,
2013-07-04 13:25:00,72.3,55.7,30.10,South,169,0.0,0.0,56,0.00,,,0.00,Wunderground v.1.15,2013-07-04 20:25:00,
2013-07-04 13:35:00,74.2,56.0,30.10,SSE,151,0.0,4.0,53,0.00,,,0.00,Wunderground v.1.15,2013-07-04 20:35:00,
2013-07-04 13:45:00,75.2,55.8,30.10,West,264,1.0,4.0,51,0.00,,,0.00,Wunderground v.1.15,2013-07-04 20:45:00,
2013-07-04 13:50:00,75.6,56.2,30.10,NE,34,1.0,1.0,51,0.00,,,0.00,Wunderground v.1.15,2013-07-04 20:50:00,
2013-07-04 13:55:00,76.3,56.3,30.10,South,185,1.0,4.0,50,0.00,,,0.00,Wunderground v.1.15,2013-07-04 20:55:00,
2013-07-04 14:05:00,77.6,56.4,30.09,SSW,193,1.0,4.0,48,0.00,,,0.00,Wunderground v.1.15,2013-07-04 21:05:00,
2013-07-04 14:15:00,78.3,55.8,30.09,SSW,192,1.0,1.0,46,0.00,,,0.00,Wunderground v.1.15,2013-07-04 21:15:00,
2013-07-04 14:25:00,78.0,54.9,30.09,ESE,106,1.0,1.0,45,0.00,,,0.00,Wunderground v.1.15,2013-07-04 21:25:00,
2013-07-04 14:35:00,77.7,55.9,30.09,South,175,1.0,4.0,47,0.00,,,0.00,Wunderground v.1.15,2013-07-04 21:35:00,
2013-07-04 14:45:00,78.4,55.3,30.08,East,87,1.0,4.0,45,0.00,,,0.00,Wunderground v.1.15,2013-07-04 21:45:00,
2013-07-04 14:55:00,77.8,55.4,30.08,North,9,1.0,4.0,46,0.00,,,0.00,Wunderground v.1.15,2013-07-04 21:55:00,
2013-07-04 15:05:00,77.9,55.5,30.08,South,175,1.0,2.0,46,0.00,,,0.00,Wunderground v.1.15,2013-07-04 22:05:00,
2013-07-04 15:15:00,78.5,54.8,30.08,SE,141,1.0,1.0,44,0.00,,,0.00,Wunderground v.1.15,2013-07-04 22:15:00,
2013-07-04 15:25:00,78.6,54.9,30.07,South,185,1.0,1.0,44,0.00,,,0.00,Wunderground v.1.15,2013-07-04 22:25:00,
2013-07-04 15:30:00,78.9,54.5,30.07,South,175,1.0,1.0,43,0.00,,,0.00,Wunderground v.1.15,2013-07-04 22:30:00,
2013-07-04 15:35:00,79.2,55.4,30.07,NNW,330,1.0,7.0,44,0.00,,,0.00,Wunderground v.1.15,2013-07-04 22:35:00,
2013-07-04 15:45:00,79.4,55.0,30.07,SW,230,1.0,7.0,43,0.00,,,0.00,Wunderground v.1.15,2013-07-04 22:45:00,
2013-07-04 15:50:00,79.2,54.8,30.07,NW,312,0.0,7.0,43,0.00,,,0.00,Wunderground v.1.15,2013-07-04 22:50:00,
2013-07-04 15:55:00,78.5,54.1,30.07,NNW,331,1.0,7.0,43,0.00,,,0.00,Wunderground v.1.15,2013-07-04 22:55:00,
2013-07-04 16:05:00,78.2,54.5,30.07,NW,310,1.0,2.0,44,0.00,,,0.00,Wunderground v.1.15,2013-07-04 23:05:00,
2013-07-04 16:15:00,77.9,54.8,30.06,NW,308,0.0,1.0,45,0.00,,,0.00,Wunderground v.1.15,2013-07-04 23:15:00,
2013-07-04 16:25:00,77.5,54.5,30.06,South,180,0.0,1.0,45,0.00,,,0.00,Wunderground v.1.15,2013-07-04 23:25:00,
2013-07-04 16:35:00,77.0,54.0,30.06,NW,325,0.0,6.0,45,0.00,,,0.00,Wunderground v.1.15,2013-07-04 23:35:00,
2013-07-04 16:45:00,76.7,54.4,30.06,South,175,0.0,6.0,46,0.00,,,0.00,Wunderground v.1.15,2013-07-04 23:45:00,
2013-07-04 16:55:00,75.8,54.1,30.05,NNW,332,0.0,6.0,47,0.00,,,0.00,Wunderground v.1.15,2013-07-04 23:55:00,
2013-07-04 17:05:00,75.5,53.9,30.05,South,185,0.0,2.0,47,0.00,,,0.00,Wunderground v.1.15,2013-07-05 00:05:00,
2013-07-04 17:15:00,75.3,53.7,30.04,South,175,0.0,0.0,47,0.00,,,0.00,Wunderground v.1.15,2013-07-05 00:15:00,
2013-07-04 17:25:00,74.8,53.8,30.04,South,175,0.0,0.0,48,0.00,,,0.00,Wunderground v.1.15,2013-07-05 00:25:00,
2013-07-04 17:35:00,74.2,53.8,30.04,South,185,0.0,4.0,49,0.00,,,0.00,Wunderground v.1.15,2013-07-05 00:35:00,
2013-07-04 17:45:00,73.7,54.4,30.03,NW,309,0.0,4.0,51,0.00,,,0.00,Wunderground v.1.15,2013-07-05 00:45:00,
2013-07-04 17:55:00,73.1,54.4,30.03,SSE,158,0.0,4.0,52,0.00,,,0.00,Wunderground v.1.15,2013-07-05 00:55:00,
2013-07-04 18:05:00,71.8,54.8,30.03,SSE,160,0.0,0.0,55,0.00,,,0.00,Wunderground v.1.15,2013-07-05 01:05:00,
2013-07-04 18:10:00,71.3,54.3,30.03,North,8,0.0,0.0,55,0.00,,,0.00,Wunderground v.1.15,2013-07-05 01:10:00,
2013-07-04 18:15:00,70.8,53.8,30.03,WNW,303,0.0,0.0,55,0.00,,,0.00,Wunderground v.1.15,2013-07-05 01:15:00,
2013-07-04 18:25:00,70.0,54.1,30.03,NW,316,0.0,0.0,57,0.00,,,0.00,Wunderground v.1.15,2013-07-05 01:25:00,
2013-07-04 18:35:00,69.3,53.4,30.02,NW,313,0.0,1.0,57,0.00,,,0.00,Wunderground v.1.15,2013-07-05 01:35:00,
2013-07-04 18:45:00,69.2,53.3,30.02,WNW,301,0.0,2.0,57,0.00,,,0.00,Wunderground v.1.15,2013-07-05 01:45:00,
2013-07-04 18:55:00,69.1,53.2,30.02,NW,314,0.0,1.0,57,0.00,,,0.00,Wunderground v.1.15,2013-07-05 01:55:00,
2013-07-04 19:00:00,69.0,53.1,30.02,WNW,298,0.0,0.0,57,0.00,,,0.00,Wunderground v.1.15,2013-07-05 02:00:00,
2013-07-04 19:10:00,69.0,53.6,30.02,East,87,0.0,0.0,58,0.00,,,0.00,Wunderground v.1.15,2013-07-05 02:10:00,
2013-07-04 19:15:00,69.0,53.6,30.02,NW,312,0.0,0.0,58,0.00,,,0.00,Wunderground v.1.15,2013-07-05 02:15:00,
2013-07-04 19:20:00,69.0,53.6,30.02,NNW,343,0.0,0.0,58,0.00,,,0.00,Wunderground v.1.15,2013-07-05 02:20:00,
2013-07-04 19:25:00,68.9,53.5,30.02,North,357,0.0,0.0,58,0.00,,,0.00,Wunderground v.1.15,2013-07-05 02:25:00,
2013-07-04 19:35:00,68.9,53.5,30.02,NW,312,0.0,2.0,58,0.00,,,0.00,Wunderground v.1.15,2013-07-05 02:35:00,
2013-07-04 19:45:00,68.9,53.5,30.01,NW,308,0.0,2.0,58,0.00,,,0.00,Wunderground v.1.15,2013-07-05 02:45:00,
2013-07-04 19:55:00,69.0,53.6,30.02,WNW,301,0.0,2.0,58,0.00,,,0.00,Wunderground v.1.15,2013-07-05 02:55:00,
2013-07-04 20:05:00,69.1,52.7,30.01,WNW,301,0.0,0.0,56,0.00,,,0.00,Wunderground v.1.15,2013-07-05 03:05:00,
2013-07-04 20:15:00,69.2,53.3,30.01,NNW,335,0.0,0.0,57,0.00,,,0.00,Wunderground v.1.15,2013-07-05 03:15:00,
2013-07-04 20:25:00,69.2,53.8,30.01,NNW,329,0.0,0.0,58,0.00,,,0.00,Wunderground v.1.15,2013-07-05 03:25:00,
2013-07-04 20:30:00,69.2,53.8,30.01,NNW,329,0.0,0.0,58,0.00,,,0.00,Wunderground v.1.15,2013-07-05 03:30:00,
2013-07-04 20:35:00,69.2,53.8,30.01,NNW,329,0.0,2.0,58,0.00,,,0.00,Wunderground v.1.15,2013-07-05 03:35:00,
2013-07-04 20:45:00,69.2,54.3,30.01,NNW,329,0.0,2.0,59,0.00,,,0.00,Wunderground v.1.15,2013-07-05 03:45:00,
2013-07-04 20:55:00,69.4,54.0,30.01,NNW,329,0.0,2.0,58,0.00,,,0.00,Wunderground v.1.15,2013-07-05 03:55:00,
2013-07-04 21:05:00,69.1,53.7,30.01,NNW,329,0.0,0.0,58,0.00,,,0.00,Wunderground v.1.15,2013-07-05 04:05:00,
2013-07-04 21:10:00,68.8,53.9,30.01,NNW,329,0.0,0.0,59,0.00,,,0.00,Wunderground v.1.15,2013-07-05 04:10:00,
2013-07-04 21:15:00,68.5,54.1,30.01,NNW,329,0.0,0.0,60,0.00,,,0.00,Wunderground v.1.15,2013-07-05 04:15:00,
2013-07-04 21:25:00,67.7,53.8,30.01,NW,325,0.0,0.0,61,0.00,,,0.00,Wunderground v.1.15,2013-07-05 04:25:00,
2013-07-04 21:40:00,67.1,54.1,30.01,NW,310,0.0,0.0,63,0.00,,,0.00,Wunderground v.1.15,2013-07-05 04:40:00,
2013-07-04 21:45:00,66.9,53.9,30.01,NW,310,0.0,0.0,63,0.00,,,0.00,Wunderground v.1.15,2013-07-05 04:45:00,
2013-07-04 21:55:00,66.8,54.2,30.01,NW,310,0.0,0.0,64,0.00,,,0.00,Wunderground v.1.15,2013-07-05 04:55:00,
2013-07-04 22:05:00,66.1,53.6,30.01,NW,308,0.0,0.0,64,0.00,,,0.00,Wunderground v.1.15,2013-07-05 05:05:00,
2013-07-04 22:15:00,65.1,53.5,30.01,NNW,347,0.0,0.0,66,0.00,,,0.00,Wunderground v.1.15,2013-07-05 05:15:00,
2013-07-04 22:25:00,64.4,53.6,30.01,NNW,347,0.0,0.0,68,0.00,,,0.00,Wunderground v.1.15,2013-07-05 05:25:00,
2013-07-04 22:35:00,63.8,53.4,30.01,NNW,347,0.0,1.0,69,0.00,,,0.00,Wunderground v.1.15,2013-07-05 05:35:00,
2013-07-04 22:45:00,63.2,53.3,30.01,NNW,347,0.0,1.0,70,0.00,,,0.00,Wunderground v.1.15,2013-07-05 05:45:00,
2013-07-04 22:55:00,62.4,53.6,30.01,NW,314,0.0,1.0,73,0.00,,,0.00,Wunderground v.1.15,2013-07-05 05:55:00,
2013-07-04 23:05:00,61.9,53.9,30.01,NW,323,0.0,0.0,75,0.00,,,0.00,Wunderground v.1.15,2013-07-05 06:05:00,
2013-07-04 23:10:00,61.7,53.7,30.00,NW,323,0.0,0.0,75,0.00,,,0.00,Wunderground v.1.15,2013-07-05 06:10:00,
2013-07-04 23:15:00,61.5,53.9,30.01,NW,323,0.0,0.0,76,0.00,,,0.00,Wunderground v.1.15,2013-07-05 06:15:00,
2013-07-04 23:25:00,61.2,53.9,30.01,NW,324,0.0,0.0,77,0.00,,,0.00,Wunderground v.1.15,2013-07-05 06:25:00,
2013-07-04 23:35:00,60.8,53.5,30.01,North,349,0.0,4.0,77,0.00,,,0.00,Wunderground v.1.15,2013-07-05 06:35:00,
2013-07-04 23:45:00,60.5,53.6,30.00,North,349,0.0,4.0,78,0.00,,,0.00,Wunderground v.1.15,2013-07-05 06:45:00,
2013-07-04 23:55:00,60.4,53.5,30.00,North,353,0.0,4.0,78,0.00,,,0.00,Wunderground v.1.15,2013-07-05 06:55:00,